sensor_id;sensor_type;location;lat;lon;timestamp;temperature;humidity
34726;DHT22;20951;50.818;4.344;2023-06-22T00:00:56;23.40;99.90
34726;DHT22;20951;50.818;4.344;2023-06-22T00:03:23;23.40;99.90
34726;DHT22;20951;50.818;4.344;2023-06-22T00:05:50;23.30;99.90
34726;DHT22;20951;50.818;4.344;2023-06-22T00:08:17;23.30;99.90
34726;DHT22;20951;50.818;4.344;2023-06-22T00:10:44;23.30;99.90
34726;DHT22;20951;50.818;4.344;2023-06-22T00:13:10;23.30;99.90
34726;DHT22;20951;50.818;4.344;2023-06-22T00:15:38;23.20;99.90
34726;DHT22;20951;50.818;4.344;2023-06-22T00:18:05;23.30;99.90
34726;DHT22;20951;50.818;4.344;2023-06-22T00:20:31;23.30;99.90
34726;DHT22;20951;50.818;4.344;2023-06-22T00:22:58;23.20;99.90
34726;DHT22;20951;50.818;4.344;2023-06-22T00:25:25;23.30;99.90
34726;DHT22;20951;50.818;4.344;2023-06-22T00:27:51;23.30;99.90
34726;DHT22;20951;50.818;4.344;2023-06-22T00:30:17;23.40;99.90
34726;DHT22;20951;50.818;4.344;2023-06-22T00:32:43;23.40;99.90
34726;DHT22;20951;50.818;4.344;2023-06-22T00:35:12;23.40;99.90
34726;DHT22;20951;50.818;4.344;2023-06-22T00:37:39;23.30;99.90
34726;DHT22;20951;50.818;4.344;2023-06-22T00:40:11;23.20;99.90
34726;DHT22;20951;50.818;4.344;2023-06-22T00:42:38;23.20;99.90
34726;DHT22;20951;50.818;4.344;2023-06-22T00:45:05;23.20;99.90
34726;DHT22;20951;50.818;4.344;2023-06-22T00:47:31;23.30;99.90
34726;DHT22;20951;50.818;4.344;2023-06-22T00:49:58;23.30;99.90
34726;DHT22;20951;50.818;4.344;2023-06-22T00:52:24;23.40;99.90
34726;DHT22;20951;50.818;4.344;2023-06-22T00:54:55;23.40;99.90
34726;DHT22;20951;50.818;4.344;2023-06-22T00:57:22;23.40;99.90
34726;DHT22;20951;50.818;4.344;2023-06-22T00:59:53;23.40;99.90
34726;DHT22;20951;50.818;4.344;2023-06-22T01:02:19;23.40;99.90
34726;DHT22;20951;50.818;4.344;2023-06-22T01:04:45;23.30;99.90
34726;DHT22;20951;50.818;4.344;2023-06-22T01:12:26;22.90;99.90
34726;DHT22;20951;50.818;4.344;2023-06-22T01:15:06;22.90;99.90
34726;DHT22;20951;50.818;4.344;2023-06-22T01:17:33;22.90;99.90
34726;DHT22;20951;50.818;4.344;2023-06-22T01:20:00;22.90;99.90
34726;DHT22;20951;50.818;4.344;2023-06-22T01:22:31;22.90;99.90
34726;DHT22;20951;50.818;4.344;2023-06-22T01:25:09;22.80;99.90
34726;DHT22;20951;50.818;4.344;2023-06-22T01:30:16;22.80;99.90
34726;DHT22;20951;50.818;4.344;2023-06-22T01:32:44;22.80;99.90
34726;DHT22;20951;50.818;4.344;2023-06-22T01:35:10;22.70;99.90
34726;DHT22;20951;50.818;4.344;2023-06-22T01:37:38;22.70;99.90
34726;DHT22;20951;50.818;4.344;2023-06-22T01:40:05;22.70;99.90
34726;DHT22;20951;50.818;4.344;2023-06-22T01:42:31;22.70;99.90
34726;DHT22;20951;50.818;4.344;2023-06-22T01:44:58;22.70;99.90
34726;DHT22;20951;50.818;4.344;2023-06-22T01:47:25;22.60;99.90
34726;DHT22;20951;50.818;4.344;2023-06-22T01:49:53;22.60;99.90
34726;DHT22;20951;50.818;4.344;2023-06-22T01:52:19;22.60;99.90
34726;DHT22;20951;50.818;4.344;2023-06-22T01:54:46;22.40;99.90
34726;DHT22;20951;50.818;4.344;2023-06-22T01:57:12;22.40;99.90
34726;DHT22;20951;50.818;4.344;2023-06-22T02:02:23;22.50;99.90
34726;DHT22;20951;50.818;4.344;2023-06-22T02:05:01;22.50;99.90
34726;DHT22;20951;50.818;4.344;2023-06-22T02:07:31;22.50;99.90
34726;DHT22;20951;50.818;4.344;2023-06-22T02:09:59;22.50;99.90
34726;DHT22;20951;50.818;4.344;2023-06-22T02:12:27;22.40;99.90
34726;DHT22;20951;50.818;4.344;2023-06-22T02:14:54;22.40;99.90
34726;DHT22;20951;50.818;4.344;2023-06-22T02:17:20;22.40;99.90
34726;DHT22;20951;50.818;4.344;2023-06-22T02:19:46;22.40;99.90
34726;DHT22;20951;50.818;4.344;2023-06-22T02:22:12;22.40;99.90
34726;DHT22;20951;50.818;4.344;2023-06-22T02:24:40;22.30;99.90
34726;DHT22;20951;50.818;4.344;2023-06-22T02:27:06;22.30;99.90
34726;DHT22;20951;50.818;4.344;2023-06-22T02:29:32;22.30;99.90
34726;DHT22;20951;50.818;4.344;2023-06-22T02:31:58;22.20;99.90
34726;DHT22;20951;50.818;4.344;2023-06-22T02:34:25;22.30;99.90
34726;DHT22;20951;50.818;4.344;2023-06-22T02:36:51;22.30;99.90
34726;DHT22;20951;50.818;4.344;2023-06-22T02:39:24;22.20;99.90
34726;DHT22;20951;50.818;4.344;2023-06-22T02:41:51;22.30;99.90
34726;DHT22;20951;50.818;4.344;2023-06-22T02:44:17;22.20;99.90
34726;DHT22;20951;50.818;4.344;2023-06-22T02:46:43;22.20;99.90
34726;DHT22;20951;50.818;4.344;2023-06-22T02:49:10;22.30;99.90
34726;DHT22;20951;50.818;4.344;2023-06-22T02:51:39;22.10;99.90
34726;DHT22;20951;50.818;4.344;2023-06-22T02:54:05;22.00;99.90
34726;DHT22;20951;50.818;4.344;2023-06-22T02:56:31;22.00;99.90
34726;DHT22;20951;50.818;4.344;2023-06-22T02:58:57;22.00;99.90
34726;DHT22;20951;50.818;4.344;2023-06-22T03:01:29;21.90;99.90
34726;DHT22;20951;50.818;4.344;2023-06-22T03:03:56;21.80;99.90
34726;DHT22;20951;50.818;4.344;2023-06-22T03:06:22;21.80;99.90
34726;DHT22;20951;50.818;4.344;2023-06-22T03:08:50;21.90;99.90
34726;DHT22;20951;50.818;4.344;2023-06-22T03:11:16;21.90;99.90
34726;DHT22;20951;50.818;4.344;2023-06-22T03:13:42;22.00;99.90
34726;DHT22;20951;50.818;4.344;2023-06-22T03:16:08;21.90;99.90
34726;DHT22;20951;50.818;4.344;2023-06-22T03:18:34;21.90;99.90
34726;DHT22;20951;50.818;4.344;2023-06-22T03:20:59;21.90;99.90
34726;DHT22;20951;50.818;4.344;2023-06-22T03:23:27;21.90;99.90
34726;DHT22;20951;50.818;4.344;2023-06-22T03:25:53;21.90;99.90
34726;DHT22;20951;50.818;4.344;2023-06-22T03:28:21;21.80;99.90
34726;DHT22;20951;50.818;4.344;2023-06-22T03:30:47;21.80;99.90
34726;DHT22;20951;50.818;4.344;2023-06-22T03:33:13;21.80;99.90
34726;DHT22;20951;50.818;4.344;2023-06-22T03:35:38;21.80;99.90
34726;DHT22;20951;50.818;4.344;2023-06-22T03:38:04;21.90;99.90
34726;DHT22;20951;50.818;4.344;2023-06-22T03:40:30;22.00;99.90
34726;DHT22;20951;50.818;4.344;2023-06-22T03:42:56;22.00;99.90
34726;DHT22;20951;50.818;4.344;2023-06-22T03:45:21;22.10;99.90
34726;DHT22;20951;50.818;4.344;2023-06-22T03:47:47;22.10;99.90
34726;DHT22;20951;50.818;4.344;2023-06-22T03:50:13;22.10;99.90
34726;DHT22;20951;50.818;4.344;2023-06-22T03:52:40;22.20;99.90
34726;DHT22;20951;50.818;4.344;2023-06-22T03:55:07;22.30;99.90
34726;DHT22;20951;50.818;4.344;2023-06-22T03:57:33;22.30;99.90
34726;DHT22;20951;50.818;4.344;2023-06-22T04:00:00;22.30;99.90
34726;DHT22;20951;50.818;4.344;2023-06-22T04:02:26;22.30;99.90
34726;DHT22;20951;50.818;4.344;2023-06-22T04:04:52;22.30;99.90
34726;DHT22;20951;50.818;4.344;2023-06-22T04:07:18;22.30;99.90
34726;DHT22;20951;50.818;4.344;2023-06-22T04:09:43;22.30;99.90
34726;DHT22;20951;50.818;4.344;2023-06-22T04:12:09;22.40;99.90
34726;DHT22;20951;50.818;4.344;2023-06-22T04:14:35;22.30;99.90
34726;DHT22;20951;50.818;4.344;2023-06-22T04:17:01;22.40;99.90
34726;DHT22;20951;50.818;4.344;2023-06-22T04:19:27;22.50;99.90
34726;DHT22;20951;50.818;4.344;2023-06-22T04:21:52;22.40;99.90
34726;DHT22;20951;50.818;4.344;2023-06-22T04:24:18;22.40;99.90
34726;DHT22;20951;50.818;4.344;2023-06-22T04:26:44;22.30;99.90
34726;DHT22;20951;50.818;4.344;2023-06-22T04:29:12;22.20;99.90
34726;DHT22;20951;50.818;4.344;2023-06-22T04:31:38;22.20;99.90
34726;DHT22;20951;50.818;4.344;2023-06-22T04:34:05;22.30;99.90
34726;DHT22;20951;50.818;4.344;2023-06-22T04:36:35;22.40;99.90
34726;DHT22;20951;50.818;4.344;2023-06-22T04:39:09;22.40;99.90
34726;DHT22;20951;50.818;4.344;2023-06-22T04:41:39;22.40;99.90
34726;DHT22;20951;50.818;4.344;2023-06-22T04:44:09;22.60;99.90
34726;DHT22;20951;50.818;4.344;2023-06-22T04:46:35;22.60;99.90
34726;DHT22;20951;50.818;4.344;2023-06-22T04:49:07;22.50;99.90
34726;DHT22;20951;50.818;4.344;2023-06-22T04:51:44;22.40;99.90
34726;DHT22;20951;50.818;4.344;2023-06-22T04:54:10;22.50;99.90
34726;DHT22;20951;50.818;4.344;2023-06-22T04:56:37;22.40;99.90
34726;DHT22;20951;50.818;4.344;2023-06-22T04:59:03;22.40;99.90
34726;DHT22;20951;50.818;4.344;2023-06-22T05:01:29;22.40;99.90
34726;DHT22;20951;50.818;4.344;2023-06-22T05:03:58;22.40;99.90
34726;DHT22;20951;50.818;4.344;2023-06-22T05:06:26;22.40;99.90
34726;DHT22;20951;50.818;4.344;2023-06-22T05:08:57;22.40;99.90
34726;DHT22;20951;50.818;4.344;2023-06-22T05:11:29;22.30;99.90
34726;DHT22;20951;50.818;4.344;2023-06-22T05:13:55;22.30;99.90
34726;DHT22;20951;50.818;4.344;2023-06-22T05:16:21;22.30;99.90
34726;DHT22;20951;50.818;4.344;2023-06-22T05:18:50;22.40;99.90
34726;DHT22;20951;50.818;4.344;2023-06-22T05:21:16;22.40;99.90
34726;DHT22;20951;50.818;4.344;2023-06-22T05:23:42;22.30;99.90
34726;DHT22;20951;50.818;4.344;2023-06-22T05:26:08;22.20;99.90
34726;DHT22;20951;50.818;4.344;2023-06-22T05:28:35;22.10;99.90
34726;DHT22;20951;50.818;4.344;2023-06-22T05:31:01;22.00;99.90
34726;DHT22;20951;50.818;4.344;2023-06-22T05:33:27;21.80;99.90
34726;DHT22;20951;50.818;4.344;2023-06-22T05:35:53;21.60;99.90
34726;DHT22;20951;50.818;4.344;2023-06-22T05:38:18;21.50;99.90
34726;DHT22;20951;50.818;4.344;2023-06-22T05:40:44;21.40;99.90
34726;DHT22;20951;50.818;4.344;2023-06-22T05:43:10;21.30;99.90
34726;DHT22;20951;50.818;4.344;2023-06-22T05:45:36;21.30;99.90
34726;DHT22;20951;50.818;4.344;2023-06-22T05:48:02;21.20;99.90
34726;DHT22;20951;50.818;4.344;2023-06-22T05:50:28;21.10;99.90
34726;DHT22;20951;50.818;4.344;2023-06-22T05:52:54;21.10;99.90
34726;DHT22;20951;50.818;4.344;2023-06-22T05:55:20;21.20;99.90
34726;DHT22;20951;50.818;4.344;2023-06-22T05:57:45;21.10;99.90
34726;DHT22;20951;50.818;4.344;2023-06-22T06:00:12;21.20;99.90
34726;DHT22;20951;50.818;4.344;2023-06-22T06:02:39;21.30;99.90
34726;DHT22;20951;50.818;4.344;2023-06-22T06:05:10;21.20;99.90
34726;DHT22;20951;50.818;4.344;2023-06-22T06:07:36;21.20;99.90
34726;DHT22;20951;50.818;4.344;2023-06-22T06:10:03;21.30;99.90
34726;DHT22;20951;50.818;4.344;2023-06-22T06:12:30;21.50;99.90
34726;DHT22;20951;50.818;4.344;2023-06-22T06:14:56;21.50;99.90
34726;DHT22;20951;50.818;4.344;2023-06-22T06:17:23;21.70;99.90
34726;DHT22;20951;50.818;4.344;2023-06-22T06:19:55;21.80;99.90
34726;DHT22;20951;50.818;4.344;2023-06-22T06:22:21;21.80;99.90
34726;DHT22;20951;50.818;4.344;2023-06-22T06:24:49;21.80;99.90
34726;DHT22;20951;50.818;4.344;2023-06-22T06:27:15;21.90;99.90
34726;DHT22;20951;50.818;4.344;2023-06-22T06:29:41;22.10;99.90
34726;DHT22;20951;50.818;4.344;2023-06-22T06:32:07;22.20;99.90
34726;DHT22;20951;50.818;4.344;2023-06-22T06:34:33;22.40;99.90
34726;DHT22;20951;50.818;4.344;2023-06-22T06:37:01;22.50;99.90
34726;DHT22;20951;50.818;4.344;2023-06-22T06:39:27;22.60;99.90
34726;DHT22;20951;50.818;4.344;2023-06-22T06:41:53;22.70;99.90
34726;DHT22;20951;50.818;4.344;2023-06-22T06:44:19;22.90;99.90
34726;DHT22;20951;50.818;4.344;2023-06-22T06:46:45;22.80;99.90
34726;DHT22;20951;50.818;4.344;2023-06-22T06:49:10;22.80;99.90
34726;DHT22;20951;50.818;4.344;2023-06-22T06:51:39;22.80;99.90
34726;DHT22;20951;50.818;4.344;2023-06-22T06:54:05;22.90;99.90
34726;DHT22;20951;50.818;4.344;2023-06-22T06:56:31;22.90;99.90
34726;DHT22;20951;50.818;4.344;2023-06-22T06:58:58;23.00;99.90
34726;DHT22;20951;50.818;4.344;2023-06-22T07:01:24;22.90;99.90
34726;DHT22;20951;50.818;4.344;2023-06-22T07:03:50;22.90;99.90
34726;DHT22;20951;50.818;4.344;2023-06-22T07:06:16;23.00;99.90
34726;DHT22;20951;50.818;4.344;2023-06-22T07:08:42;22.90;99.90
34726;DHT22;20951;50.818;4.344;2023-06-22T07:11:08;22.90;99.90
34726;DHT22;20951;50.818;4.344;2023-06-22T07:13:34;22.90;99.90
34726;DHT22;20951;50.818;4.344;2023-06-22T07:16:00;22.90;99.90
34726;DHT22;20951;50.818;4.344;2023-06-22T07:18:26;22.90;99.90
34726;DHT22;20951;50.818;4.344;2023-06-22T07:20:52;22.90;99.90
34726;DHT22;20951;50.818;4.344;2023-06-22T07:23:18;22.90;99.90
34726;DHT22;20951;50.818;4.344;2023-06-22T07:25:45;22.90;99.90
34726;DHT22;20951;50.818;4.344;2023-06-22T07:28:14;23.20;99.90
34726;DHT22;20951;50.818;4.344;2023-06-22T07:30:40;23.50;99.90
34726;DHT22;20951;50.818;4.344;2023-06-22T07:33:06;23.80;99.90
34726;DHT22;20951;50.818;4.344;2023-06-22T07:35:34;23.90;99.90
34726;DHT22;20951;50.818;4.344;2023-06-22T07:38:00;23.70;99.90
34726;DHT22;20951;50.818;4.344;2023-06-22T07:40:26;23.70;99.90
34726;DHT22;20951;50.818;4.344;2023-06-22T07:42:52;23.50;99.90
34726;DHT22;20951;50.818;4.344;2023-06-22T07:45:19;23.50;99.90
34726;DHT22;20951;50.818;4.344;2023-06-22T07:47:45;23.40;99.90
34726;DHT22;20951;50.818;4.344;2023-06-22T07:50:10;23.40;99.90
34726;DHT22;20951;50.818;4.344;2023-06-22T07:52:36;23.40;99.90
34726;DHT22;20951;50.818;4.344;2023-06-22T07:55:02;23.20;99.90
34726;DHT22;20951;50.818;4.344;2023-06-22T07:57:28;23.30;99.90
34726;DHT22;20951;50.818;4.344;2023-06-22T08:00:05;23.20;99.90
34726;DHT22;20951;50.818;4.344;2023-06-22T08:02:42;23.20;99.90
34726;DHT22;20951;50.818;4.344;2023-06-22T08:05:09;23.10;99.90
34726;DHT22;20951;50.818;4.344;2023-06-22T08:07:35;23.20;99.90
34726;DHT22;20951;50.818;4.344;2023-06-22T08:10:04;23.20;99.90
34726;DHT22;20951;50.818;4.344;2023-06-22T08:12:30;23.20;99.90
34726;DHT22;20951;50.818;4.344;2023-06-22T08:14:55;23.20;99.90
34726;DHT22;20951;50.818;4.344;2023-06-22T08:17:25;23.30;99.90
34726;DHT22;20951;50.818;4.344;2023-06-22T08:19:50;23.40;99.90
34726;DHT22;20951;50.818;4.344;2023-06-22T08:22:17;23.30;99.90
34726;DHT22;20951;50.818;4.344;2023-06-22T08:24:43;23.30;99.90
34726;DHT22;20951;50.818;4.344;2023-06-22T08:27:10;23.30;99.90
34726;DHT22;20951;50.818;4.344;2023-06-22T08:29:37;23.20;99.90
34726;DHT22;20951;50.818;4.344;2023-06-22T08:32:05;23.10;99.90
34726;DHT22;20951;50.818;4.344;2023-06-22T08:34:31;23.00;99.90
34726;DHT22;20951;50.818;4.344;2023-06-22T08:36:57;23.00;99.90
34726;DHT22;20951;50.818;4.344;2023-06-22T08:39:22;23.00;99.90
34726;DHT22;20951;50.818;4.344;2023-06-22T08:41:48;22.90;99.90
34726;DHT22;20951;50.818;4.344;2023-06-22T08:44:17;22.80;99.90
34726;DHT22;20951;50.818;4.344;2023-06-22T08:46:43;22.90;99.90
34726;DHT22;20951;50.818;4.344;2023-06-22T08:49:08;22.80;99.90
34726;DHT22;20951;50.818;4.344;2023-06-22T08:51:35;22.80;99.90
34726;DHT22;20951;50.818;4.344;2023-06-22T08:54:01;22.80;99.90
34726;DHT22;20951;50.818;4.344;2023-06-22T08:56:27;22.90;99.90
34726;DHT22;20951;50.818;4.344;2023-06-22T08:58:52;22.80;99.90
34726;DHT22;20951;50.818;4.344;2023-06-22T09:01:18;22.80;99.90
34726;DHT22;20951;50.818;4.344;2023-06-22T09:03:45;22.80;99.90
34726;DHT22;20951;50.818;4.344;2023-06-22T09:06:20;22.80;99.90
34726;DHT22;20951;50.818;4.344;2023-06-22T09:08:47;22.70;99.90
34726;DHT22;20951;50.818;4.344;2023-06-22T09:11:13;22.60;99.90
34726;DHT22;20951;50.818;4.344;2023-06-22T09:13:39;22.70;99.90
34726;DHT22;20951;50.818;4.344;2023-06-22T09:16:04;22.80;99.90
34726;DHT22;20951;50.818;4.344;2023-06-22T09:18:30;22.80;99.90
34726;DHT22;20951;50.818;4.344;2023-06-22T09:20:56;22.60;99.90
34726;DHT22;20951;50.818;4.344;2023-06-22T09:23:22;22.60;99.90
34726;DHT22;20951;50.818;4.344;2023-06-22T09:25:48;22.60;99.90
34726;DHT22;20951;50.818;4.344;2023-06-22T09:28:14;22.60;99.90
34726;DHT22;20951;50.818;4.344;2023-06-22T09:30:40;22.40;99.90
34726;DHT22;20951;50.818;4.344;2023-06-22T09:33:06;22.40;99.90
34726;DHT22;20951;50.818;4.344;2023-06-22T09:35:32;22.40;99.90
34726;DHT22;20951;50.818;4.344;2023-06-22T09:37:57;22.30;99.90
34726;DHT22;20951;50.818;4.344;2023-06-22T09:40:23;22.40;99.90
34726;DHT22;20951;50.818;4.344;2023-06-22T09:42:51;22.10;99.90
34726;DHT22;20951;50.818;4.344;2023-06-22T09:45:19;21.90;99.90
34726;DHT22;20951;50.818;4.344;2023-06-22T09:47:45;21.60;99.90
34726;DHT22;20951;50.818;4.344;2023-06-22T09:50:11;21.30;99.90
34726;DHT22;20951;50.818;4.344;2023-06-22T09:52:37;21.10;99.90
34726;DHT22;20951;50.818;4.344;2023-06-22T09:55:03;20.70;99.90
34726;DHT22;20951;50.818;4.344;2023-06-22T09:57:29;20.50;99.90
34726;DHT22;20951;50.818;4.344;2023-06-22T09:59:55;20.20;99.90
34726;DHT22;20951;50.818;4.344;2023-06-22T10:02:21;20.10;99.90
34726;DHT22;20951;50.818;4.344;2023-06-22T10:04:48;20.10;99.90
34726;DHT22;20951;50.818;4.344;2023-06-22T10:07:21;20.10;99.90
34726;DHT22;20951;50.818;4.344;2023-06-22T10:09:46;20.00;99.90
34726;DHT22;20951;50.818;4.344;2023-06-22T10:12:14;19.90;99.90
34726;DHT22;20951;50.818;4.344;2023-06-22T10:14:40;19.80;99.90
34726;DHT22;20951;50.818;4.344;2023-06-22T10:17:08;19.80;99.90
34726;DHT22;20951;50.818;4.344;2023-06-22T10:19:34;19.80;99.90
34726;DHT22;20951;50.818;4.344;2023-06-22T10:22:03;19.80;99.90
34726;DHT22;20951;50.818;4.344;2023-06-22T10:24:29;19.60;99.90
34726;DHT22;20951;50.818;4.344;2023-06-22T10:26:54;19.60;99.90
34726;DHT22;20951;50.818;4.344;2023-06-22T10:29:20;19.50;99.90
34726;DHT22;20951;50.818;4.344;2023-06-22T10:31:46;19.40;99.90
34726;DHT22;20951;50.818;4.344;2023-06-22T10:34:12;19.40;99.90
34726;DHT22;20951;50.818;4.344;2023-06-22T10:36:39;19.30;99.90
34726;DHT22;20951;50.818;4.344;2023-06-22T10:39:05;19.30;99.90
34726;DHT22;20951;50.818;4.344;2023-06-22T10:41:31;19.30;99.90
34726;DHT22;20951;50.818;4.344;2023-06-22T10:43:59;19.40;99.90
34726;DHT22;20951;50.818;4.344;2023-06-22T10:46:25;19.30;99.90
34726;DHT22;20951;50.818;4.344;2023-06-22T10:48:53;19.30;99.90
34726;DHT22;20951;50.818;4.344;2023-06-22T10:51:31;19.30;99.90
34726;DHT22;20951;50.818;4.344;2023-06-22T10:53:57;19.30;99.90
34726;DHT22;20951;50.818;4.344;2023-06-22T10:56:29;19.20;99.90
34726;DHT22;20951;50.818;4.344;2023-06-22T10:58:54;19.30;99.90
34726;DHT22;20951;50.818;4.344;2023-06-22T11:01:20;19.40;99.90
34726;DHT22;20951;50.818;4.344;2023-06-22T11:03:57;19.40;99.90
34726;DHT22;20951;50.818;4.344;2023-06-22T11:06:23;19.40;99.90
34726;DHT22;20951;50.818;4.344;2023-06-22T11:08:49;19.50;99.90
34726;DHT22;20951;50.818;4.344;2023-06-22T11:11:25;19.60;99.90
34726;DHT22;20951;50.818;4.344;2023-06-22T11:13:53;19.90;99.90
34726;DHT22;20951;50.818;4.344;2023-06-22T11:16:19;19.90;99.90
34726;DHT22;20951;50.818;4.344;2023-06-22T11:18:52;19.90;99.90
34726;DHT22;20951;50.818;4.344;2023-06-22T11:21:18;19.90;99.90
34726;DHT22;20951;50.818;4.344;2023-06-22T11:23:43;20.00;99.90
34726;DHT22;20951;50.818;4.344;2023-06-22T11:26:09;20.00;99.90
34726;DHT22;20951;50.818;4.344;2023-06-22T11:28:38;20.00;99.90
34726;DHT22;20951;50.818;4.344;2023-06-22T11:31:04;20.00;99.90
34726;DHT22;20951;50.818;4.344;2023-06-22T11:33:30;20.10;99.90
34726;DHT22;20951;50.818;4.344;2023-06-22T11:35:58;20.10;99.90
34726;DHT22;20951;50.818;4.344;2023-06-22T11:38:26;20.10;99.90
34726;DHT22;20951;50.818;4.344;2023-06-22T11:40:52;20.20;99.90
34726;DHT22;20951;50.818;4.344;2023-06-22T11:43:18;20.20;99.90
34726;DHT22;20951;50.818;4.344;2023-06-22T11:45:46;20.20;99.90
34726;DHT22;20951;50.818;4.344;2023-06-22T11:48:12;20.10;99.90
34726;DHT22;20951;50.818;4.344;2023-06-22T11:50:39;20.10;99.90
34726;DHT22;20951;50.818;4.344;2023-06-22T11:53:08;20.00;99.90
34726;DHT22;20951;50.818;4.344;2023-06-22T11:55:33;19.90;99.90
34726;DHT22;20951;50.818;4.344;2023-06-22T11:57:59;20.00;99.90
34726;DHT22;20951;50.818;4.344;2023-06-22T12:00:29;20.00;99.90
34726;DHT22;20951;50.818;4.344;2023-06-22T12:02:55;20.00;99.90
34726;DHT22;20951;50.818;4.344;2023-06-22T12:05:21;20.00;99.90
34726;DHT22;20951;50.818;4.344;2023-06-22T12:07:50;20.10;99.90
34726;DHT22;20951;50.818;4.344;2023-06-22T12:10:24;20.10;99.90
34726;DHT22;20951;50.818;4.344;2023-06-22T12:12:50;20.00;99.90
34726;DHT22;20951;50.818;4.344;2023-06-22T12:15:19;20.00;99.90
34726;DHT22;20951;50.818;4.344;2023-06-22T12:17:44;20.00;99.90
34726;DHT22;20951;50.818;4.344;2023-06-22T12:20:13;20.00;99.90
34726;DHT22;20951;50.818;4.344;2023-06-22T12:22:46;20.00;99.90
34726;DHT22;20951;50.818;4.344;2023-06-22T12:25:13;19.90;99.90
34726;DHT22;20951;50.818;4.344;2023-06-22T12:27:47;19.90;99.90
34726;DHT22;20951;50.818;4.344;2023-06-22T12:30:20;19.70;99.90
34726;DHT22;20951;50.818;4.344;2023-06-22T12:32:46;19.50;99.90
34726;DHT22;20951;50.818;4.344;2023-06-22T12:35:12;19.40;99.90
34726;DHT22;20951;50.818;4.344;2023-06-22T12:37:42;19.40;99.90
34726;DHT22;20951;50.818;4.344;2023-06-22T12:40:11;19.30;99.90
34726;DHT22;20951;50.818;4.344;2023-06-22T12:42:37;19.20;99.90
34726;DHT22;20951;50.818;4.344;2023-06-22T12:45:03;19.30;99.90
34726;DHT22;20951;50.818;4.344;2023-06-22T12:47:31;19.30;99.90
34726;DHT22;20951;50.818;4.344;2023-06-22T12:49:57;19.30;99.90
34726;DHT22;20951;50.818;4.344;2023-06-22T12:52:23;19.40;99.90
34726;DHT22;20951;50.818;4.344;2023-06-22T12:54:48;19.40;99.90
34726;DHT22;20951;50.818;4.344;2023-06-22T12:57:14;19.40;99.90
34726;DHT22;20951;50.818;4.344;2023-06-22T12:59:42;19.40;99.90
34726;DHT22;20951;50.818;4.344;2023-06-22T13:02:08;19.40;99.90
34726;DHT22;20951;50.818;4.344;2023-06-22T13:04:36;19.30;99.90
34726;DHT22;20951;50.818;4.344;2023-06-22T13:07:02;19.40;99.90
34726;DHT22;20951;50.818;4.344;2023-06-22T13:09:29;19.30;99.90
34726;DHT22;20951;50.818;4.344;2023-06-22T13:11:55;19.30;99.90
34726;DHT22;20951;50.818;4.344;2023-06-22T13:14:20;19.30;99.90
34726;DHT22;20951;50.818;4.344;2023-06-22T13:16:54;19.30;99.90
34726;DHT22;20951;50.818;4.344;2023-06-22T13:19:23;19.30;99.90
34726;DHT22;20951;50.818;4.344;2023-06-22T13:21:58;19.30;99.90
34726;DHT22;20951;50.818;4.344;2023-06-22T13:24:24;19.20;99.90
34726;DHT22;20951;50.818;4.344;2023-06-22T13:26:50;19.20;99.90
34726;DHT22;20951;50.818;4.344;2023-06-22T13:29:19;19.20;99.90
34726;DHT22;20951;50.818;4.344;2023-06-22T13:31:44;19.20;99.90
34726;DHT22;20951;50.818;4.344;2023-06-22T13:34:10;19.20;99.90
34726;DHT22;20951;50.818;4.344;2023-06-22T13:36:39;19.10;99.90
34726;DHT22;20951;50.818;4.344;2023-06-22T13:39:14;19.10;99.90
34726;DHT22;20951;50.818;4.344;2023-06-22T13:41:40;19.20;99.90
34726;DHT22;20951;50.818;4.344;2023-06-22T13:44:11;19.10;99.90
34726;DHT22;20951;50.818;4.344;2023-06-22T13:46:39;18.90;99.90
34726;DHT22;20951;50.818;4.344;2023-06-22T13:49:10;18.80;99.90
34726;DHT22;20951;50.818;4.344;2023-06-22T13:51:40;18.90;99.90
34726;DHT22;20951;50.818;4.344;2023-06-22T13:54:11;18.80;99.90
34726;DHT22;20951;50.818;4.344;2023-06-22T13:56:39;18.70;99.90
34726;DHT22;20951;50.818;4.344;2023-06-22T13:59:05;18.50;99.90
34726;DHT22;20951;50.818;4.344;2023-06-22T14:01:37;18.50;99.90
34726;DHT22;20951;50.818;4.344;2023-06-22T14:04:05;18.60;99.90
34726;DHT22;20951;50.818;4.344;2023-06-22T14:06:31;18.70;99.90
34726;DHT22;20951;50.818;4.344;2023-06-22T14:08:57;18.70;99.90
34726;DHT22;20951;50.818;4.344;2023-06-22T14:11:24;18.70;99.90
34726;DHT22;20951;50.818;4.344;2023-06-22T14:13:50;18.70;99.90
34726;DHT22;20951;50.818;4.344;2023-06-22T14:16:15;18.80;99.90
34726;DHT22;20951;50.818;4.344;2023-06-22T14:18:41;18.80;99.90
34726;DHT22;20951;50.818;4.344;2023-06-22T14:21:07;18.90;99.90
34726;DHT22;20951;50.818;4.344;2023-06-22T14:23:33;18.90;99.90
34726;DHT22;20951;50.818;4.344;2023-06-22T14:25:59;19.00;99.90
34726;DHT22;20951;50.818;4.344;2023-06-22T14:28:25;18.90;99.90
34726;DHT22;20951;50.818;4.344;2023-06-22T14:30:51;18.80;99.90
34726;DHT22;20951;50.818;4.344;2023-06-22T14:33:17;18.90;99.90
34726;DHT22;20951;50.818;4.344;2023-06-22T14:35:42;18.80;99.90
34726;DHT22;20951;50.818;4.344;2023-06-22T14:38:09;18.70;99.90
34726;DHT22;20951;50.818;4.344;2023-06-22T14:40:34;18.70;99.90
34726;DHT22;20951;50.818;4.344;2023-06-22T14:43:00;18.70;99.90
34726;DHT22;20951;50.818;4.344;2023-06-22T14:45:26;18.70;99.90
34726;DHT22;20951;50.818;4.344;2023-06-22T14:47:52;18.70;99.90
34726;DHT22;20951;50.818;4.344;2023-06-22T14:50:18;18.80;99.90
34726;DHT22;20951;50.818;4.344;2023-06-22T14:52:44;18.90;99.90
34726;DHT22;20951;50.818;4.344;2023-06-22T14:55:12;19.00;99.90
34726;DHT22;20951;50.818;4.344;2023-06-22T14:57:38;19.00;99.90
34726;DHT22;20951;50.818;4.344;2023-06-22T15:00:04;19.10;99.90
34726;DHT22;20951;50.818;4.344;2023-06-22T15:02:31;19.00;99.90
34726;DHT22;20951;50.818;4.344;2023-06-22T15:04:57;18.90;99.90
34726;DHT22;20951;50.818;4.344;2023-06-22T15:07:23;18.90;99.90
34726;DHT22;20951;50.818;4.344;2023-06-22T15:09:49;18.90;99.90
34726;DHT22;20951;50.818;4.344;2023-06-22T15:12:15;18.90;99.90
34726;DHT22;20951;50.818;4.344;2023-06-22T15:14:41;19.00;99.90
34726;DHT22;20951;50.818;4.344;2023-06-22T15:17:08;19.00;99.90
34726;DHT22;20951;50.818;4.344;2023-06-22T15:19:35;19.00;99.90
34726;DHT22;20951;50.818;4.344;2023-06-22T15:22:04;19.00;99.90
34726;DHT22;20951;50.818;4.344;2023-06-22T15:24:29;19.10;99.90
34726;DHT22;20951;50.818;4.344;2023-06-22T15:26:58;19.20;99.90
34726;DHT22;20951;50.818;4.344;2023-06-22T15:29:24;19.20;99.90
34726;DHT22;20951;50.818;4.344;2023-06-22T15:31:51;19.20;99.90
34726;DHT22;20951;50.818;4.344;2023-06-22T15:34:17;19.10;99.90
34726;DHT22;20951;50.818;4.344;2023-06-22T15:36:43;19.10;99.90
34726;DHT22;20951;50.818;4.344;2023-06-22T15:39:10;19.20;99.90